sensor_id;sensor_type;location;lat;lon;timestamp;P1;durP1;ratioP1;P2;durP2;ratioP2
3843;SDS011;1937;51.444;6.484;2023-02-28T00:01:39;6.67;;;4.87;;
3843;SDS011;1937;51.444;6.484;2023-02-28T00:04:08;9.80;;;5.40;;
3843;SDS011;1937;51.444;6.484;2023-02-28T00:06:37;9.30;;;4.80;;
3843;SDS011;1937;51.444;6.484;2023-02-28T00:09:09;10.47;;;4.40;;
3843;SDS011;1937;51.444;6.484;2023-02-28T00:11:38;5.07;;;4.57;;
3843;SDS011;1937;51.444;6.484;2023-02-28T00:14:06;9.50;;;4.97;;
3843;SDS011;1937;51.444;6.484;2023-02-28T00:16:35;5.50;;;4.47;;
3843;SDS011;1937;51.444;6.484;2023-02-28T00:19:03;6.70;;;4.53;;
3843;SDS011;1937;51.444;6.484;2023-02-28T00:21:33;10.40;;;4.83;;
3843;SDS011;1937;51.444;6.484;2023-02-28T00:24:01;10.23;;;3.83;;
3843;SDS011;1937;51.444;6.484;2023-02-28T00:26:32;6.70;;;5.03;;
3843;SDS011;1937;51.444;6.484;2023-02-28T00:29:01;7.83;;;5.40;;
3843;SDS011;1937;51.444;6.484;2023-02-28T00:31:29;7.73;;;5.67;;
3843;SDS011;1937;51.444;6.484;2023-02-28T00:33:58;5.30;;;4.13;;
3843;SDS011;1937;51.444;6.484;2023-02-28T00:36:26;6.67;;;4.87;;
3843;SDS011;1937;51.444;6.484;2023-02-28T00:38:55;5.83;;;4.67;;
3843;SDS011;1937;51.444;6.484;2023-02-28T00:41:23;5.13;;;4.63;;
3843;SDS011;1937;51.444;6.484;2023-02-28T00:43:53;8.50;;;5.37;;
3843;SDS011;1937;51.444;6.484;2023-02-28T00:46:22;5.80;;;4.80;;
3843;SDS011;1937;51.444;6.484;2023-02-28T00:48:50;5.83;;;4.33;;
3843;SDS011;1937;51.444;6.484;2023-02-28T00:51:19;11.43;;;5.27;;
3843;SDS011;1937;51.444;6.484;2023-02-28T00:53:50;7.67;;;4.90;;
3843;SDS011;1937;51.444;6.484;2023-02-28T00:56:21;6.30;;;5.50;;
3843;SDS011;1937;51.444;6.484;2023-02-28T00:58:50;8.63;;;5.90;;
3843;SDS011;1937;51.444;6.484;2023-02-28T01:01:19;8.80;;;4.90;;
3843;SDS011;1937;51.444;6.484;2023-02-28T01:03:52;13.20;;;5.50;;
3843;SDS011;1937;51.444;6.484;2023-02-28T01:06:21;5.60;;;4.33;;
3843;SDS011;1937;51.444;6.484;2023-02-28T01:08:50;6.00;;;3.73;;
3843;SDS011;1937;51.444;6.484;2023-02-28T01:11:18;6.27;;;4.50;;
3843;SDS011;1937;51.444;6.484;2023-02-28T01:13:47;7.53;;;5.33;;
3843;SDS011;1937;51.444;6.484;2023-02-28T01:16:16;5.53;;;4.03;;
3843;SDS011;1937;51.444;6.484;2023-02-28T01:18:47;5.10;;;4.20;;
3843;SDS011;1937;51.444;6.484;2023-02-28T01:21:17;6.40;;;4.30;;
3843;SDS011;1937;51.444;6.484;2023-02-28T01:23:48;11.80;;;4.57;;
3843;SDS011;1937;51.444;6.484;2023-02-28T01:26:19;5.73;;;5.10;;
3843;SDS011;1937;51.444;6.484;2023-02-28T01:28:48;4.83;;;4.43;;
3843;SDS011;1937;51.444;6.484;2023-02-28T01:31:18;6.87;;;4.73;;
3843;SDS011;1937;51.444;6.484;2023-02-28T01:33:48;6.23;;;5.00;;
3843;SDS011;1937;51.444;6.484;2023-02-28T01:36:18;7.20;;;4.17;;
3843;SDS011;1937;51.444;6.484;2023-02-28T01:38:50;6.73;;;4.80;;
3843;SDS011;1937;51.444;6.484;2023-02-28T01:41:21;11.10;;;4.97;;
3843;SDS011;1937;51.444;6.484;2023-02-28T01:43:54;7.50;;;4.50;;
3843;SDS011;1937;51.444;6.484;2023-02-28T01:46:23;10.10;;;5.10;;
3843;SDS011;1937;51.444;6.484;2023-02-28T01:48:54;6.60;;;5.30;;
3843;SDS011;1937;51.444;6.484;2023-02-28T01:51:27;6.87;;;4.20;;
3843;SDS011;1937;51.444;6.484;2023-02-28T01:54:01;7.40;;;4.40;;
3843;SDS011;1937;51.444;6.484;2023-02-28T01:56:38;5.00;;;3.60;;
3843;SDS011;1937;51.444;6.484;2023-02-28T01:59:13;4.83;;;3.93;;
3843;SDS011;1937;51.444;6.484;2023-02-28T02:01:47;8.83;;;6.00;;
3843;SDS011;1937;51.444;6.484;2023-02-28T02:04:18;6.80;;;4.27;;
3843;SDS011;1937;51.444;6.484;2023-02-28T02:06:49;8.40;;;4.23;;
3843;SDS011;1937;51.444;6.484;2023-02-28T02:09:18;7.80;;;5.87;;
3843;SDS011;1937;51.444;6.484;2023-02-28T02:11:48;6.80;;;4.87;;
3843;SDS011;1937;51.444;6.484;2023-02-28T02:14:30;10.53;;;4.87;;
3843;SDS011;1937;51.444;6.484;2023-02-28T02:17:07;6.80;;;5.53;;
3843;SDS011;1937;51.444;6.484;2023-02-28T02:19:52;11.07;;;5.43;;
3843;SDS011;1937;51.444;6.484;2023-02-28T02:22:59;7.00;;;4.83;;
3843;SDS011;1937;51.444;6.484;2023-02-28T02:25:42;8.07;;;4.87;;
3843;SDS011;1937;51.444;6.484;2023-02-28T02:28:37;6.50;;;4.63;;
3843;SDS011;1937;51.444;6.484;2023-02-28T02:31:20;11.53;;;4.80;;
3843;SDS011;1937;51.444;6.484;2023-02-28T02:37:08;7.90;;;4.50;;
3843;SDS011;1937;51.444;6.484;2023-02-28T02:39:44;5.10;;;4.60;;
3843;SDS011;1937;51.444;6.484;2023-02-28T02:42:19;5.07;;;4.53;;
3843;SDS011;1937;51.444;6.484;2023-02-28T02:44:50;15.03;;;4.70;;
3843;SDS011;1937;51.444;6.484;2023-02-28T02:47:24;6.33;;;4.90;;
3843;SDS011;1937;51.444;6.484;2023-02-28T02:49:59;8.90;;;4.70;;
3843;SDS011;1937;51.444;6.484;2023-02-28T02:52:33;5.37;;;4.10;;
3843;SDS011;1937;51.444;6.484;2023-02-28T02:55:07;6.03;;;4.40;;
3843;SDS011;1937;51.444;6.484;2023-02-28T02:57:38;8.13;;;4.80;;
3843;SDS011;1937;51.444;6.484;2023-02-28T03:00:14;5.93;;;4.17;;
3843;SDS011;1937;51.444;6.484;2023-02-28T03:02:46;9.20;;;4.70;;
3843;SDS011;1937;51.444;6.484;2023-02-28T03:05:21;5.87;;;4.70;;
3843;SDS011;1937;51.444;6.484;2023-02-28T03:07:52;8.17;;;4.67;;
3843;SDS011;1937;51.444;6.484;2023-02-28T03:10:26;7.30;;;5.00;;
3843;SDS011;1937;51.444;6.484;2023-02-28T03:16:14;8.50;;;4.80;;
3843;SDS011;1937;51.444;6.484;2023-02-28T03:19:02;6.93;;;4.50;;
3843;SDS011;1937;51.444;6.484;2023-02-28T03:21:40;8.93;;;5.37;;
3843;SDS011;1937;51.444;6.484;2023-02-28T03:24:18;8.67;;;5.33;;
3843;SDS011;1937;51.444;6.484;2023-02-28T03:26:54;7.23;;;4.97;;
3843;SDS011;1937;51.444;6.484;2023-02-28T03:29:32;6.90;;;4.00;;
3843;SDS011;1937;51.444;6.484;2023-02-28T03:32:05;5.97;;;4.30;;
3843;SDS011;1937;51.444;6.484;2023-02-28T03:34:39;5.10;;;4.50;;
3843;SDS011;1937;51.444;6.484;2023-02-28T03:37:16;9.27;;;4.10;;
3843;SDS011;1937;51.444;6.484;2023-02-28T03:39:49;5.87;;;5.03;;
3843;SDS011;1937;51.444;6.484;2023-02-28T03:42:23;7.77;;;4.60;;
3843;SDS011;1937;51.444;6.484;2023-02-28T03:44:55;9.47;;;5.00;;
3843;SDS011;1937;51.444;6.484;2023-02-28T03:47:27;7.63;;;5.13;;
3843;SDS011;1937;51.444;6.484;2023-02-28T03:49:59;6.57;;;4.80;;
3843;SDS011;1937;51.444;6.484;2023-02-28T03:52:35;6.83;;;4.57;;
3843;SDS011;1937;51.444;6.484;2023-02-28T03:55:11;5.83;;;5.10;;
3843;SDS011;1937;51.444;6.484;2023-02-28T03:57:43;6.70;;;4.13;;
3843;SDS011;1937;51.444;6.484;2023-02-28T04:00:18;7.20;;;4.50;;
3843;SDS011;1937;51.444;6.484;2023-02-28T04:02:53;6.17;;;4.47;;
3843;SDS011;1937;51.444;6.484;2023-02-28T04:05:22;11.37;;;5.60;;
3843;SDS011;1937;51.444;6.484;2023-02-28T04:07:53;11.13;;;5.27;;
3843;SDS011;1937;51.444;6.484;2023-02-28T04:10:29;7.00;;;4.57;;
3843;SDS011;1937;51.444;6.484;2023-02-28T04:12:57;11.20;;;4.87;;
3843;SDS011;1937;51.444;6.484;2023-02-28T04:15:26;5.70;;;3.90;;
3843;SDS011;1937;51.444;6.484;2023-02-28T04:17:54;7.97;;;4.43;;
3843;SDS011;1937;51.444;6.484;2023-02-28T04:20:23;6.27;;;4.53;;
3843;SDS011;1937;51.444;6.484;2023-02-28T04:22:53;6.47;;;4.33;;
3843;SDS011;1937;51.444;6.484;2023-02-28T04:25:22;8.47;;;4.50;;
3843;SDS011;1937;51.444;6.484;2023-02-28T04:27:50;7.17;;;4.40;;
3843;SDS011;1937;51.444;6.484;2023-02-28T04:30:19;6.27;;;4.37;;
3843;SDS011;1937;51.444;6.484;2023-02-28T04:32:48;10.63;;;4.83;;
3843;SDS011;1937;51.444;6.484;2023-02-28T04:35:17;7.73;;;4.80;;
3843;SDS011;1937;51.444;6.484;2023-02-28T04:37:46;6.20;;;4.80;;
3843;SDS011;1937;51.444;6.484;2023-02-28T04:40:17;6.47;;;4.73;;
3843;SDS011;1937;51.444;6.484;2023-02-28T04:42:45;4.53;;;4.13;;
3843;SDS011;1937;51.444;6.484;2023-02-28T04:45:14;6.53;;;4.70;;
3843;SDS011;1937;51.444;6.484;2023-02-28T04:47:43;8.50;;;4.77;;
3843;SDS011;1937;51.444;6.484;2023-02-28T04:50:13;7.63;;;4.30;;
3843;SDS011;1937;51.444;6.484;2023-02-28T04:52:42;12.43;;;5.30;;
3843;SDS011;1937;51.444;6.484;2023-02-28T04:55:10;9.13;;;4.17;;
3843;SDS011;1937;51.444;6.484;2023-02-28T04:57:40;4.60;;;3.70;;
3843;SDS011;1937;51.444;6.484;2023-02-28T05:00:10;8.63;;;5.30;;
3843;SDS011;1937;51.444;6.484;2023-02-28T05:02:41;7.70;;;4.27;;
3843;SDS011;1937;51.444;6.484;2023-02-28T05:05:11;10.30;;;4.17;;
3843;SDS011;1937;51.444;6.484;2023-02-28T05:07:43;5.33;;;3.80;;
3843;SDS011;1937;51.444;6.484;2023-02-28T05:10:18;8.80;;;4.17;;
3843;SDS011;1937;51.444;6.484;2023-02-28T05:12:49;5.17;;;3.50;;
3843;SDS011;1937;51.444;6.484;2023-02-28T05:15:17;3.80;;;3.30;;
3843;SDS011;1937;51.444;6.484;2023-02-28T05:17:47;8.30;;;4.90;;
3843;SDS011;1937;51.444;6.484;2023-02-28T05:20:15;5.43;;;3.93;;
3843;SDS011;1937;51.444;6.484;2023-02-28T05:22:44;3.70;;;3.40;;
3843;SDS011;1937;51.444;6.484;2023-02-28T05:25:13;5.53;;;4.03;;
3843;SDS011;1937;51.444;6.484;2023-02-28T05:27:44;4.27;;;3.70;;
3843;SDS011;1937;51.444;6.484;2023-02-28T05:30:16;4.77;;;4.07;;
3843;SDS011;1937;51.444;6.484;2023-02-28T05:32:49;6.40;;;5.27;;
3843;SDS011;1937;51.444;6.484;2023-02-28T05:35:18;4.90;;;3.57;;
3843;SDS011;1937;51.444;6.484;2023-02-28T05:37:46;5.33;;;3.93;;
3843;SDS011;1937;51.444;6.484;2023-02-28T05:40:14;3.87;;;3.47;;
3843;SDS011;1937;51.444;6.484;2023-02-28T05:42:44;7.83;;;3.47;;
3843;SDS011;1937;51.444;6.484;2023-02-28T05:45:15;6.40;;;4.40;;
3843;SDS011;1937;51.444;6.484;2023-02-28T05:47:43;8.40;;;3.77;;
3843;SDS011;1937;51.444;6.484;2023-02-28T05:50:14;10.67;;;4.17;;
3843;SDS011;1937;51.444;6.484;2023-02-28T05:52:44;4.77;;;3.60;;
3843;SDS011;1937;51.444;6.484;2023-02-28T05:55:14;4.80;;;3.53;;
3843;SDS011;1937;51.444;6.484;2023-02-28T05:57:44;7.53;;;3.43;;
3843;SDS011;1937;51.444;6.484;2023-02-28T06:00:13;4.73;;;3.43;;
3843;SDS011;1937;51.444;6.484;2023-02-28T06:02:42;7.33;;;4.00;;
3843;SDS011;1937;51.444;6.484;2023-02-28T06:05:13;4.43;;;3.30;;
3843;SDS011;1937;51.444;6.484;2023-02-28T06:07:42;4.53;;;4.13;;
3843;SDS011;1937;51.444;6.484;2023-02-28T06:10:11;5.17;;;3.50;;
3843;SDS011;1937;51.444;6.484;2023-02-28T06:12:40;7.00;;;3.90;;
3843;SDS011;1937;51.444;6.484;2023-02-28T06:15:11;4.43;;;3.30;;
3843;SDS011;1937;51.444;6.484;2023-02-28T06:17:43;10.10;;;4.23;;
3843;SDS011;1937;51.444;6.484;2023-02-28T06:20:12;4.83;;;4.00;;
3843;SDS011;1937;51.444;6.484;2023-02-28T06:22:40;3.60;;;3.30;;
3843;SDS011;1937;51.444;6.484;2023-02-28T06:25:09;5.77;;;4.10;;
3843;SDS011;1937;51.444;6.484;2023-02-28T06:27:37;4.83;;;4.00;;
3843;SDS011;1937;51.444;6.484;2023-02-28T06:30:06;4.30;;;3.33;;
3843;SDS011;1937;51.444;6.484;2023-02-28T06:32:36;5.03;;;3.57;;
3843;SDS011;1937;51.444;6.484;2023-02-28T06:35:06;10.53;;;4.10;;
3843;SDS011;1937;51.444;6.484;2023-02-28T06:37:35;6.60;;;3.93;;
3843;SDS011;1937;51.444;6.484;2023-02-28T06:40:04;5.03;;;3.97;;
3843;SDS011;1937;51.444;6.484;2023-02-28T06:42:34;4.20;;;3.80;;
3843;SDS011;1937;51.444;6.484;2023-02-28T06:45:03;6.63;;;4.20;;
3843;SDS011;1937;51.444;6.484;2023-02-28T06:47:34;4.20;;;3.53;;
3843;SDS011;1937;51.444;6.484;2023-02-28T06:50:03;6.50;;;3.83;;
3843;SDS011;1937;51.444;6.484;2023-02-28T06:52:34;6.20;;;3.90;;
3843;SDS011;1937;51.444;6.484;2023-02-28T06:55:03;6.17;;;3.23;;
3843;SDS011;1937;51.444;6.484;2023-02-28T06:57:33;8.90;;;3.90;;
3843;SDS011;1937;51.444;6.484;2023-02-28T07:00:03;9.17;;;3.80;;
3843;SDS011;1937;51.444;6.484;2023-02-28T07:02:34;5.60;;;3.80;;
3843;SDS011;1937;51.444;6.484;2023-02-28T07:05:04;5.13;;;3.50;;
3843;SDS011;1937;51.444;6.484;2023-02-28T07:07:35;5.80;;;3.90;;
3843;SDS011;1937;51.444;6.484;2023-02-28T07:10:08;7.33;;;3.83;;
3843;SDS011;1937;51.444;6.484;2023-02-28T07:12:39;3.77;;;3.30;;
3843;SDS011;1937;51.444;6.484;2023-02-28T07:15:09;5.10;;;3.70;;
3843;SDS011;1937;51.444;6.484;2023-02-28T07:17:38;10.30;;;3.83;;
3843;SDS011;1937;51.444;6.484;2023-02-28T07:20:07;4.90;;;3.13;;
3843;SDS011;1937;51.444;6.484;2023-02-28T07:22:37;6.47;;;3.40;;
3843;SDS011;1937;51.444;6.484;2023-02-28T07:25:07;2.83;;;2.63;;
3843;SDS011;1937;51.444;6.484;2023-02-28T07:27:36;6.13;;;3.53;;
3843;SDS011;1937;51.444;6.484;2023-02-28T07:30:06;5.87;;;4.20;;
3843;SDS011;1937;51.444;6.484;2023-02-28T07:32:37;4.10;;;3.53;;
3843;SDS011;1937;51.444;6.484;2023-02-28T07:35:06;4.17;;;3.57;;
3843;SDS011;1937;51.444;6.484;2023-02-28T07:37:38;5.93;;;4.00;;
3843;SDS011;1937;51.444;6.484;2023-02-28T07:40:08;5.43;;;4.40;;
3843;SDS011;1937;51.444;6.484;2023-02-28T07:42:39;5.33;;;3.80;;
3843;SDS011;1937;51.444;6.484;2023-02-28T07:45:08;6.17;;;4.47;;
3843;SDS011;1937;51.444;6.484;2023-02-28T07:47:38;4.43;;;3.43;;
3843;SDS011;1937;51.444;6.484;2023-02-28T07:50:07;5.40;;;3.83;;
3843;SDS011;1937;51.444;6.484;2023-02-28T07:52:41;6.17;;;4.33;;
3843;SDS011;1937;51.444;6.484;2023-02-28T07:55:10;6.30;;;3.83;;
3843;SDS011;1937;51.444;6.484;2023-02-28T07:57:41;4.20;;;3.43;;
3843;SDS011;1937;51.444;6.484;2023-02-28T08:00:11;12.83;;;4.13;;
3843;SDS011;1937;51.444;6.484;2023-02-28T08:02:41;4.30;;;3.67;;
3843;SDS011;1937;51.444;6.484;2023-02-28T08:05:09;5.83;;;3.93;;
3843;SDS011;1937;51.444;6.484;2023-02-28T08:07:38;7.40;;;4.53;;
3843;SDS011;1937;51.444;6.484;2023-02-28T08:10:08;4.10;;;3.70;;
3843;SDS011;1937;51.444;6.484;2023-02-28T08:12:38;5.43;;;3.20;;
3843;SDS011;1937;51.444;6.484;2023-02-28T08:15:07;5.83;;;4.10;;
3843;SDS011;1937;51.444;6.484;2023-02-28T08:17:37;6.37;;;4.37;;
3843;SDS011;1937;51.444;6.484;2023-02-28T08:20:06;6.13;;;4.43;;
3843;SDS011;1937;51.444;6.484;2023-02-28T08:22:36;9.00;;;4.60;;
3843;SDS011;1937;51.444;6.484;2023-02-28T08:25:09;7.43;;;3.90;;
3843;SDS011;1937;51.444;6.484;2023-02-28T08:27:38;8.17;;;4.13;;
3843;SDS011;1937;51.444;6.484;2023-02-28T08:30:07;5.27;;;3.60;;
3843;SDS011;1937;51.444;6.484;2023-02-28T08:32:36;4.10;;;3.70;;
3843;SDS011;1937;51.444;6.484;2023-02-28T08:35:07;5.40;;;4.03;;
3843;SDS011;1937;51.444;6.484;2023-02-28T08:37:36;4.97;;;3.63;;
3843;SDS011;1937;51.444;6.484;2023-02-28T08:40:08;4.80;;;3.50;;
3843;SDS011;1937;51.444;6.484;2023-02-28T08:42:43;4.67;;;3.73;;
3843;SDS011;1937;51.444;6.484;2023-02-28T08:45:13;8.60;;;4.00;;
3843;SDS011;1937;51.444;6.484;2023-02-28T08:47:42;8.03;;;3.90;;
3843;SDS011;1937;51.444;6.484;2023-02-28T08:50:10;5.20;;;3.40;;
3843;SDS011;1937;51.444;6.484;2023-02-28T08:52:41;4.13;;;3.43;;
3843;SDS011;1937;51.444;6.484;2023-02-28T08:55:11;5.93;;;4.07;;
3843;SDS011;1937;51.444;6.484;2023-02-28T08:57:40;4.60;;;3.63;;
3843;SDS011;1937;51.444;6.484;2023-02-28T09:00:10;5.30;;;3.83;;
3843;SDS011;1937;51.444;6.484;2023-02-28T09:02:40;8.10;;;3.63;;
3843;SDS011;1937;51.444;6.484;2023-02-28T09:05:09;9.13;;;3.23;;
3843;SDS011;1937;51.444;6.484;2023-02-28T09:07:38;5.17;;;3.13;;
3843;SDS011;1937;51.444;6.484;2023-02-28T09:10:06;5.00;;;3.40;;
3843;SDS011;1937;51.444;6.484;2023-02-28T09:12:37;2.77;;;2.40;;
3843;SDS011;1937;51.444;6.484;2023-02-28T09:15:06;3.30;;;2.60;;
3843;SDS011;1937;51.444;6.484;2023-02-28T09:17:37;3.80;;;3.07;;
3843;SDS011;1937;51.444;6.484;2023-02-28T09:20:06;4.33;;;2.60;;
3843;SDS011;1937;51.444;6.484;2023-02-28T09:22:36;2.83;;;2.40;;
3843;SDS011;1937;51.444;6.484;2023-02-28T09:25:05;2.40;;;2.20;;
3843;SDS011;1937;51.444;6.484;2023-02-28T09:27:34;5.60;;;2.90;;
3843;SDS011;1937;51.444;6.484;2023-02-28T09:30:05;4.80;;;4.03;;
3843;SDS011;1937;51.444;6.484;2023-02-28T09:32:33;3.20;;;2.90;;
3843;SDS011;1937;51.444;6.484;2023-02-28T09:35:01;2.73;;;2.53;;
3843;SDS011;1937;51.444;6.484;2023-02-28T09:37:31;2.90;;;2.70;;
3843;SDS011;1937;51.444;6.484;2023-02-28T09:39:59;3.27;;;2.87;;
3843;SDS011;1937;51.444;6.484;2023-02-28T09:42:29;2.97;;;2.53;;
3843;SDS011;1937;51.444;6.484;2023-02-28T09:45:00;3.00;;;2.70;;
3843;SDS011;1937;51.444;6.484;2023-02-28T09:47:35;2.67;;;2.43;;
3843;SDS011;1937;51.444;6.484;2023-02-28T09:50:11;3.27;;;2.90;;
3843;SDS011;1937;51.444;6.484;2023-02-28T09:52:48;2.70;;;2.20;;
3843;SDS011;1937;51.444;6.484;2023-02-28T09:55:19;2.80;;;2.33;;
3843;SDS011;1937;51.444;6.484;2023-02-28T09:57:53;4.60;;;4.20;;
3843;SDS011;1937;51.444;6.484;2023-02-28T10:00:26;3.43;;;2.10;;
3843;SDS011;1937;51.444;6.484;2023-02-28T10:03:21;8.80;;;2.30;;
3843;SDS011;1937;51.444;6.484;2023-02-28T10:05:58;2.23;;;2.03;;
3843;SDS011;1937;51.444;6.484;2023-02-28T10:08:31;3.03;;;2.50;;
3843;SDS011;1937;51.444;6.484;2023-02-28T10:11:07;2.53;;;2.33;;
3843;SDS011;1937;51.444;6.484;2023-02-28T10:13:45;2.83;;;2.63;;
3843;SDS011;1937;51.444;6.484;2023-02-28T10:16:20;2.73;;;2.20;;
3843;SDS011;1937;51.444;6.484;2023-02-28T10:18:54;2.83;;;2.27;;
3843;SDS011;1937;51.444;6.484;2023-02-28T10:21:29;2.90;;;2.60;;
3843;SDS011;1937;51.444;6.484;2023-02-28T10:24:03;1.80;;;1.70;;
3843;SDS011;1937;51.444;6.484;2023-02-28T10:26:37;4.30;;;2.30;;
3843;SDS011;1937;51.444;6.484;2023-02-28T10:29:08;2.47;;;1.97;;
3843;SDS011;1937;51.444;6.484;2023-02-28T10:31:36;2.40;;;1.80;;
3843;SDS011;1937;51.444;6.484;2023-02-28T10:34:08;2.53;;;2.33;;
3843;SDS011;1937;51.444;6.484;2023-02-28T10:36:40;4.43;;;2.00;;
3843;SDS011;1937;51.444;6.484;2023-02-28T10:42:03;5.27;;;2.07;;
3843;SDS011;1937;51.444;6.484;2023-02-28T10:44:44;2.40;;;2.20;;
3843;SDS011;1937;51.444;6.484;2023-02-28T10:47:14;2.23;;;2.03;;
3843;SDS011;1937;51.444;6.484;2023-02-28T10:49:48;2.30;;;2.10;;
3843;SDS011;1937;51.444;6.484;2023-02-28T10:52:32;2.43;;;2.10;;
3843;SDS011;1937;51.444;6.484;2023-02-28T10:55:14;3.03;;;2.73;;
3843;SDS011;1937;51.444;6.484;2023-02-28T10:57:45;2.30;;;2.10;;
3843;SDS011;1937;51.444;6.484;2023-02-28T11:00:15;2.40;;;2.00;;
3843;SDS011;1937;51.444;6.484;2023-02-28T11:02:47;2.90;;;2.60;;
3843;SDS011;1937;51.444;6.484;2023-02-28T11:05:26;3.80;;;3.33;;
3843;SDS011;1937;51.444;6.484;2023-02-28T11:07:59;2.63;;;2.43;;
3843;SDS011;1937;51.444;6.484;2023-02-28T11:10:33;2.60;;;1.93;;
3843;SDS011;1937;51.444;6.484;2023-02-28T11:13:02;3.60;;;1.97;;
3843;SDS011;1937;51.444;6.484;2023-02-28T11:15:32;2.17;;;1.90;;
3843;SDS011;1937;51.444;6.484;2023-02-28T11:18:02;2.27;;;2.07;;
3843;SDS011;1937;51.444;6.484;2023-02-28T11:20:49;3.00;;;2.70;;
3843;SDS011;1937;51.444;6.484;2023-02-28T11:23:20;3.90;;;3.00;;
3843;SDS011;1937;51.444;6.484;2023-02-28T11:25:53;4.43;;;2.80;;
3843;SDS011;1937;51.444;6.484;2023-02-28T11:28:25;4.20;;;2.43;;
3843;SDS011;1937;51.444;6.484;2023-02-28T11:31:00;3.27;;;2.50;;
